sensor_id;sensor_type;location;lat;lon;timestamp;pressure;altitude;pressure_sealevel;temperature;humidity
80308;BME280;69616;43.522;1.348;2023-06-04T00:00:23;99748.94;;;19.47;66.70
80308;BME280;69616;43.522;1.348;2023-06-04T00:02:49;99745.25;;;19.49;66.36
80308;BME280;69616;43.522;1.348;2023-06-04T00:05:14;99756.88;;;19.48;67.23
80308;BME280;69616;43.522;1.348;2023-06-04T00:07:40;99750.81;;;19.45;67.11
80308;BME280;69616;43.522;1.348;2023-06-04T00:10:06;99751.84;;;19.42;67.54
80308;BME280;69616;43.522;1.348;2023-06-04T00:12:31;99755.38;;;19.43;67.11
80308;BME280;69616;43.522;1.348;2023-06-04T00:14:57;99741.00;;;19.45;67.14
80308;BME280;69616;43.522;1.348;2023-06-04T00:17:22;99742.91;;;19.43;66.57
80308;BME280;69616;43.522;1.348;2023-06-04T00:19:48;99741.44;;;19.36;67.22
80308;BME280;69616;43.522;1.348;2023-06-04T00:22:13;99737.69;;;19.40;66.92
80308;BME280;69616;43.522;1.348;2023-06-04T00:24:39;99735.66;;;19.45;66.87
80308;BME280;69616;43.522;1.348;2023-06-04T00:27:07;99728.75;;;19.41;66.66
80308;BME280;69616;43.522;1.348;2023-06-04T00:29:33;99726.88;;;19.43;66.56
80308;BME280;69616;43.522;1.348;2023-06-04T00:31:58;99732.22;;;19.43;66.35
80308;BME280;69616;43.522;1.348;2023-06-04T00:34:25;99723.47;;;19.40;66.78
80308;BME280;69616;43.522;1.348;2023-06-04T00:36:50;99725.28;;;19.39;66.78
80308;BME280;69616;43.522;1.348;2023-06-04T00:39:16;99729.66;;;19.40;66.62
80308;BME280;69616;43.522;1.348;2023-06-04T00:41:41;99732.97;;;19.28;67.66
80308;BME280;69616;43.522;1.348;2023-06-04T00:44:07;99729.34;;;19.29;67.50
80308;BME280;69616;43.522;1.348;2023-06-04T00:46:34;99732.16;;;19.26;67.98
80308;BME280;69616;43.522;1.348;2023-06-04T00:49:03;99729.66;;;19.22;67.88
80308;BME280;69616;43.522;1.348;2023-06-04T00:51:31;99727.03;;;19.21;67.74
80308;BME280;69616;43.522;1.348;2023-06-04T00:53:58;99729.94;;;19.16;67.89
80308;BME280;69616;43.522;1.348;2023-06-04T00:56:23;99733.25;;;19.21;67.97
80308;BME280;69616;43.522;1.348;2023-06-04T00:58:49;99727.94;;;19.21;68.10
80308;BME280;69616;43.522;1.348;2023-06-04T01:01:55;99722.81;;;19.17;68.73
80308;BME280;69616;43.522;1.348;2023-06-04T01:04:48;99734.34;;;19.17;68.24
80308;BME280;69616;43.522;1.348;2023-06-04T01:07:15;99727.00;;;19.22;67.56
80308;BME280;69616;43.522;1.348;2023-06-04T01:09:43;99734.69;;;19.29;67.83
80308;BME280;69616;43.522;1.348;2023-06-04T01:12:10;99726.38;;;19.35;67.30
80308;BME280;69616;43.522;1.348;2023-06-04T01:14:36;99727.00;;;19.40;66.92
80308;BME280;69616;43.522;1.348;2023-06-04T01:22:35;99736.75;;;19.41;66.79
80308;BME280;69616;43.522;1.348;2023-06-04T01:25:05;99733.28;;;19.39;67.16
80308;BME280;69616;43.522;1.348;2023-06-04T01:27:31;99731.50;;;19.40;66.87
80308;BME280;69616;43.522;1.348;2023-06-04T01:29:58;99734.94;;;19.42;66.68
80308;BME280;69616;43.522;1.348;2023-06-04T01:32:26;99727.81;;;19.42;66.69
80308;BME280;69616;43.522;1.348;2023-06-04T01:34:52;99730.47;;;19.42;66.87
80308;BME280;69616;43.522;1.348;2023-06-04T01:37:17;99725.22;;;19.41;66.69
80308;BME280;69616;43.522;1.348;2023-06-04T01:39:43;99727.00;;;19.40;66.52
80308;BME280;69616;43.522;1.348;2023-06-04T01:42:09;99727.00;;;19.40;66.39
80308;BME280;69616;43.522;1.348;2023-06-04T01:44:34;99737.84;;;19.37;66.32
80308;BME280;69616;43.522;1.348;2023-06-04T01:47:00;99725.44;;;19.36;66.73
80308;BME280;69616;43.522;1.348;2023-06-04T01:49:25;99720.25;;;19.33;66.59
80308;BME280;69616;43.522;1.348;2023-06-04T01:51:51;99719.59;;;19.28;66.35
80308;BME280;69616;43.522;1.348;2023-06-04T01:54:16;99727.03;;;19.21;66.91
80308;BME280;69616;43.522;1.348;2023-06-04T01:56:43;99733.41;;;19.18;66.70
80308;BME280;69616;43.522;1.348;2023-06-04T01:59:09;99721.88;;;19.18;66.63
80308;BME280;69616;43.522;1.348;2023-06-04T02:01:37;99731.69;;;19.17;66.67
80308;BME280;69616;43.522;1.348;2023-06-04T02:04:02;99726.47;;;19.14;66.82
80308;BME280;69616;43.522;1.348;2023-06-04T02:06:28;99728.19;;;19.15;66.67
80308;BME280;69616;43.522;1.348;2023-06-04T02:08:55;99731.69;;;19.17;66.85
80308;BME280;69616;43.522;1.348;2023-06-04T02:11:21;99725.47;;;19.17;66.99
80308;BME280;69616;43.522;1.348;2023-06-04T02:13:46;99735.25;;;19.16;66.77
80308;BME280;69616;43.522;1.348;2023-06-04T02:16:12;99735.25;;;19.16;66.94
80308;BME280;69616;43.522;1.348;2023-06-04T02:18:37;99735.25;;;19.16;66.67
80308;BME280;69616;43.522;1.348;2023-06-04T02:21:03;99739.91;;;19.13;66.83
80308;BME280;69616;43.522;1.348;2023-06-04T02:23:28;99726.94;;;19.05;66.96
80308;BME280;69616;43.522;1.348;2023-06-04T02:25:56;99736.81;;;19.03;67.03
80308;BME280;69616;43.522;1.348;2023-06-04T02:28:22;99738.69;;;19.01;67.03
80308;BME280;69616;43.522;1.348;2023-06-04T02:30:47;99736.09;;;18.99;67.26
80308;BME280;69616;43.522;1.348;2023-06-04T02:33:13;99738.03;;;18.96;67.41
80308;BME280;69616;43.522;1.348;2023-06-04T02:35:39;99740.66;;;18.76;68.24
80308;BME280;69616;43.522;1.348;2023-06-04T02:38:06;99748.13;;;18.70;68.91
80308;BME280;69616;43.522;1.348;2023-06-04T02:40:31;99738.16;;;18.73;68.58
80308;BME280;69616;43.522;1.348;2023-06-04T02:42:57;99735.44;;;18.75;68.38
80308;BME280;69616;43.522;1.348;2023-06-04T02:45:23;99742.34;;;18.79;68.44
80308;BME280;69616;43.522;1.348;2023-06-04T02:47:48;99738.09;;;18.75;68.56
80308;BME280;69616;43.522;1.348;2023-06-04T02:50:14;99730.09;;;18.75;68.59
80308;BME280;69616;43.522;1.348;2023-06-04T02:52:43;99735.44;;;18.75;68.64
80308;BME280;69616;43.522;1.348;2023-06-04T02:55:09;99733.53;;;18.77;68.71
80308;BME280;69616;43.522;1.348;2023-06-04T02:57:40;99732.53;;;18.79;69.06
80308;BME280;69616;43.522;1.348;2023-06-04T03:00:07;99737.75;;;18.83;68.78
80308;BME280;69616;43.522;1.348;2023-06-04T03:02:46;99736.56;;;18.88;68.71
80308;BME280;69616;43.522;1.348;2023-06-04T03:05:13;99737.28;;;18.92;68.69
80308;BME280;69616;43.522;1.348;2023-06-04T03:07:40;99740.69;;;18.96;68.61
80308;BME280;69616;43.522;1.348;2023-06-04T03:10:09;99740.59;;;18.97;68.83
80308;BME280;69616;43.522;1.348;2023-06-04T03:12:35;99740.56;;;18.99;68.43
80308;BME280;69616;43.522;1.348;2023-06-04T03:15:01;99733.47;;;18.98;68.86
80308;BME280;69616;43.522;1.348;2023-06-04T03:17:27;99737.75;;;19.02;68.53
80308;BME280;69616;43.522;1.348;2023-06-04T03:19:52;99731.47;;;19.03;68.53
80308;BME280;69616;43.522;1.348;2023-06-04T03:22:18;99725.47;;;18.98;68.81
80308;BME280;69616;43.522;1.348;2023-06-04T03:24:44;99733.53;;;18.96;69.04
80308;BME280;69616;43.522;1.348;2023-06-04T03:27:10;99725.81;;;18.90;69.33
80308;BME280;69616;43.522;1.348;2023-06-04T03:29:36;99729.50;;;18.87;69.17
80308;BME280;69616;43.522;1.348;2023-06-04T03:32:02;99726.97;;;18.84;69.50
80308;BME280;69616;43.522;1.348;2023-06-04T03:34:28;99726.03;;;18.85;69.41
80308;BME280;69616;43.522;1.348;2023-06-04T03:36:56;99730.66;;;18.82;69.71
80308;BME280;69616;43.522;1.348;2023-06-04T03:39:22;99730.78;;;18.78;69.67
80308;BME280;69616;43.522;1.348;2023-06-04T03:41:48;99731.72;;;18.77;69.60
80308;BME280;69616;43.522;1.348;2023-06-04T03:44:17;99736.06;;;18.80;69.63
80308;BME280;69616;43.522;1.348;2023-06-04T03:46:43;99720.69;;;18.85;69.33
80308;BME280;69616;43.522;1.348;2023-06-04T03:49:10;99724.16;;;18.87;69.37
80308;BME280;69616;43.522;1.348;2023-06-04T03:51:36;99722.28;;;18.89;69.31
80308;BME280;69616;43.522;1.348;2023-06-04T03:54:02;99729.34;;;18.90;69.09
80308;BME280;69616;43.522;1.348;2023-06-04T03:56:28;99724.94;;;18.89;69.07
80308;BME280;69616;43.522;1.348;2023-06-04T03:58:54;99732.81;;;18.92;69.24
80308;BME280;69616;43.522;1.348;2023-06-04T04:01:20;99723.00;;;18.93;69.28
80308;BME280;69616;43.522;1.348;2023-06-04T04:03:46;99721.06;;;18.97;69.06
80308;BME280;69616;43.522;1.348;2023-06-04T04:06:15;99719.25;;;18.97;69.10
80308;BME280;69616;43.522;1.348;2023-06-04T04:08:41;99718.56;;;18.93;69.08
80308;BME280;69616;43.522;1.348;2023-06-04T04:11:15;99714.38;;;18.88;69.41
80308;BME280;69616;43.522;1.348;2023-06-04T04:13:41;99717.19;;;18.85;69.50
80308;BME280;69616;43.522;1.348;2023-06-04T04:16:07;99719.13;;;18.81;69.52
80308;BME280;69616;43.522;1.348;2023-06-04T04:18:33;99714.88;;;18.77;69.44
80308;BME280;69616;43.522;1.348;2023-06-04T04:20:59;99721.16;;;18.76;69.32
80308;BME280;69616;43.522;1.348;2023-06-04T04:23:25;99723.03;;;18.74;69.55
80308;BME280;69616;43.522;1.348;2023-06-04T04:25:52;99724.75;;;18.75;69.44
80308;BME280;69616;43.522;1.348;2023-06-04T04:28:19;99724.75;;;18.75;69.34
80308;BME280;69616;43.522;1.348;2023-06-04T04:30:45;99723.81;;;18.76;69.24
80308;BME280;69616;43.522;1.348;2023-06-04T04:33:12;99718.34;;;18.79;69.54
80308;BME280;69616;43.522;1.348;2023-06-04T04:35:44;99721.78;;;18.81;69.21
80308;BME280;69616;43.522;1.348;2023-06-04T04:38:09;99724.31;;;18.84;69.33
80308;BME280;69616;43.522;1.348;2023-06-04T04:40:36;99728.78;;;18.84;69.30
80308;BME280;69616;43.522;1.348;2023-06-04T04:43:02;99733.41;;;18.80;69.85
80308;BME280;69616;43.522;1.348;2023-06-04T04:45:27;99732.53;;;18.79;69.66
80308;BME280;69616;43.522;1.348;2023-06-04T04:47:52;99726.25;;;18.80;69.97
80308;BME280;69616;43.522;1.348;2023-06-04T04:50:18;99726.47;;;18.76;69.79
80308;BME280;69616;43.522;1.348;2023-06-04T04:52:44;99727.41;;;18.75;69.86
80308;BME280;69616;43.522;1.348;2023-06-04T04:55:09;99730.94;;;18.75;70.00
80308;BME280;69616;43.522;1.348;2023-06-04T04:57:38;99735.13;;;18.81;69.67
80308;BME280;69616;43.522;1.348;2023-06-04T05:00:04;99740.31;;;18.84;69.64
80308;BME280;69616;43.522;1.348;2023-06-04T05:02:35;99745.34;;;18.90;69.45
80308;BME280;69616;43.522;1.348;2023-06-04T05:05:01;99741.75;;;18.91;69.52
80308;BME280;69616;43.522;1.348;2023-06-04T05:07:27;99748.03;;;18.90;69.79
80308;BME280;69616;43.522;1.348;2023-06-04T05:09:52;99745.25;;;18.93;70.17
80308;BME280;69616;43.522;1.348;2023-06-04T05:12:18;99752.03;;;19.01;69.73
80308;BME280;69616;43.522;1.348;2023-06-04T05:14:44;99752.38;;;19.12;69.55
80308;BME280;69616;43.522;1.348;2023-06-04T05:17:11;99748.19;;;19.26;69.07
80308;BME280;69616;43.522;1.348;2023-06-04T05:19:38;99746.78;;;19.36;68.64
80308;BME280;69616;43.522;1.348;2023-06-04T05:22:04;99750.53;;;19.32;68.84
80308;BME280;69616;43.522;1.348;2023-06-04T05:24:31;99757.28;;;19.21;69.33
80308;BME280;69616;43.522;1.348;2023-06-04T05:26:58;99763.41;;;19.24;69.21
80308;BME280;69616;43.522;1.348;2023-06-04T05:29:23;99760.00;;;19.20;69.19
80308;BME280;69616;43.522;1.348;2023-06-04T05:31:49;99757.66;;;19.14;69.47
80308;BME280;69616;43.522;1.348;2023-06-04T05:34:15;99761.56;;;19.06;69.67
80308;BME280;69616;43.522;1.348;2023-06-04T05:36:44;99763.91;;;18.93;70.13
80308;BME280;69616;43.522;1.348;2023-06-04T05:39:10;99773.91;;;18.88;70.39
80308;BME280;69616;43.522;1.348;2023-06-04T05:41:36;99769.50;;;18.87;70.29
80308;BME280;69616;43.522;1.348;2023-06-04T05:44:04;99775.94;;;18.83;70.17
80308;BME280;69616;43.522;1.348;2023-06-04T05:46:29;99771.28;;;18.68;70.64
80308;BME280;69616;43.522;1.348;2023-06-04T05:48:55;99781.16;;;18.65;70.87
80308;BME280;69616;43.522;1.348;2023-06-04T05:51:20;99784.63;;;18.68;70.72
80308;BME280;69616;43.522;1.348;2023-06-04T05:53:46;99786.25;;;18.72;70.63
80308;BME280;69616;43.522;1.348;2023-06-04T05:56:12;99787.97;;;18.73;70.81
80308;BME280;69616;43.522;1.348;2023-06-04T05:58:38;99786.94;;;18.75;70.77
80308;BME280;69616;43.522;1.348;2023-06-04T06:01:04;99789.41;;;18.80;70.77
80308;BME280;69616;43.522;1.348;2023-06-04T06:03:29;99790.22;;;18.82;70.81
80308;BME280;69616;43.522;1.348;2023-06-04T06:05:55;99783.44;;;18.75;71.23
80308;BME280;69616;43.522;1.348;2023-06-04T06:08:23;99792.50;;;18.71;71.46
80308;BME280;69616;43.522;1.348;2023-06-04T06:10:48;99792.63;;;18.68;71.71
80308;BME280;69616;43.522;1.348;2023-06-04T06:13:15;99789.91;;;18.69;71.42
80308;BME280;69616;43.522;1.348;2023-06-04T06:15:41;99797.03;;;18.69;71.70
80308;BME280;69616;43.522;1.348;2023-06-04T06:18:07;99789.72;;;18.74;71.32
80308;BME280;69616;43.522;1.348;2023-06-04T06:20:32;99791.19;;;18.79;71.34
80308;BME280;69616;43.522;1.348;2023-06-04T06:23:05;99792.66;;;18.87;71.04
80308;BME280;69616;43.522;1.348;2023-06-04T06:25:31;99790.44;;;18.97;71.06
80308;BME280;69616;43.522;1.348;2023-06-04T06:27:57;99791.03;;;19.03;70.94
80308;BME280;69616;43.522;1.348;2023-06-04T06:30:23;99791.63;;;19.10;70.65
80308;BME280;69616;43.522;1.348;2023-06-04T06:32:48;99793.13;;;19.16;70.60
80308;BME280;69616;43.522;1.348;2023-06-04T06:35:15;99795.50;;;19.22;70.53
80308;BME280;69616;43.522;1.348;2023-06-04T06:37:41;99795.16;;;19.30;70.37
80308;BME280;69616;43.522;1.348;2023-06-04T06:40:09;99808.91;;;19.40;70.20
80308;BME280;69616;43.522;1.348;2023-06-04T06:42:34;99797.72;;;19.50;69.97
80308;BME280;69616;43.522;1.348;2023-06-04T06:45:00;99806.78;;;19.65;69.84
80308;BME280;69616;43.522;1.348;2023-06-04T06:47:26;99800.53;;;19.84;68.84
80308;BME280;69616;43.522;1.348;2023-06-04T06:49:51;99797.34;;;19.95;68.61
80308;BME280;69616;43.522;1.348;2023-06-04T06:52:17;99796.69;;;20.07;68.41
80308;BME280;69616;43.522;1.348;2023-06-04T06:54:45;99804.72;;;20.07;68.65
80308;BME280;69616;43.522;1.348;2023-06-04T06:57:11;99804.34;;;20.15;68.20
80308;BME280;69616;43.522;1.348;2023-06-04T06:59:37;99814.31;;;20.12;68.53
80308;BME280;69616;43.522;1.348;2023-06-04T07:02:03;99806.22;;;20.13;68.24
80308;BME280;69616;43.522;1.348;2023-06-04T07:04:28;99805.50;;;20.27;68.12
80308;BME280;69616;43.522;1.348;2023-06-04T07:06:54;99800.31;;;20.42;67.31
80308;BME280;69616;43.522;1.348;2023-06-04T07:09:19;99796.22;;;20.68;66.99
80308;BME280;69616;43.522;1.348;2023-06-04T07:11:45;99799.44;;;20.92;66.32
80308;BME280;69616;43.522;1.348;2023-06-04T07:14:11;99799.19;;;21.29;65.31
80308;BME280;69616;43.522;1.348;2023-06-04T07:16:36;99797.88;;;21.52;64.92
80308;BME280;69616;43.522;1.348;2023-06-04T07:19:01;99794.53;;;21.65;64.42
80308;BME280;69616;43.522;1.348;2023-06-04T07:21:27;99795.78;;;21.90;64.22
80308;BME280;69616;43.522;1.348;2023-06-04T07:23:53;99794.25;;;22.00;63.83
80308;BME280;69616;43.522;1.348;2023-06-04T07:26:19;99793.91;;;22.06;63.36
80308;BME280;69616;43.522;1.348;2023-06-04T07:28:44;99794.69;;;22.08;63.25
80308;BME280;69616;43.522;1.348;2023-06-04T07:31:10;99798.53;;;21.88;63.25
80308;BME280;69616;43.522;1.348;2023-06-04T07:33:36;99798.31;;;21.77;63.69
80308;BME280;69616;43.522;1.348;2023-06-04T07:36:12;99795.97;;;21.87;63.19
80308;BME280;69616;43.522;1.348;2023-06-04T07:38:38;99800.22;;;22.05;62.82
80308;BME280;69616;43.522;1.348;2023-06-04T07:41:03;99800.00;;;22.25;62.07
80308;BME280;69616;43.522;1.348;2023-06-04T07:43:29;99807.56;;;22.32;62.06
80308;BME280;69616;43.522;1.348;2023-06-04T07:45:54;99800.25;;;22.50;61.61
80308;BME280;69616;43.522;1.348;2023-06-04T07:48:20;99798.44;;;22.65;61.38
80308;BME280;69616;43.522;1.348;2023-06-04T07:50:46;99797.66;;;22.78;60.99
80308;BME280;69616;43.522;1.348;2023-06-04T07:53:11;99802.06;;;22.93;59.81
80308;BME280;69616;43.522;1.348;2023-06-04T07:55:37;99792.47;;;23.04;60.02
80308;BME280;69616;43.522;1.348;2023-06-04T07:58:02;99797.25;;;23.28;60.06
80308;BME280;69616;43.522;1.348;2023-06-04T08:00:30;99796.41;;;23.55;59.26
80308;BME280;69616;43.522;1.348;2023-06-04T08:02:56;99791.84;;;23.70;58.59
80308;BME280;69616;43.522;1.348;2023-06-04T08:05:22;99791.03;;;23.95;57.95
80308;BME280;69616;43.522;1.348;2023-06-04T08:07:48;99790.81;;;23.98;57.52
80308;BME280;69616;43.522;1.348;2023-06-04T08:10:14;99784.34;;;24.15;56.85
80308;BME280;69616;43.522;1.348;2023-06-04T08:12:39;99789.63;;;24.30;56.88
80308;BME280;69616;43.522;1.348;2023-06-04T08:15:05;99785.13;;;24.43;56.48
80308;BME280;69616;43.522;1.348;2023-06-04T08:17:31;99781.31;;;24.59;55.40
80308;BME280;69616;43.522;1.348;2023-06-04T08:19:57;99783.25;;;24.70;55.29
80308;BME280;69616;43.522;1.348;2023-06-04T08:22:22;99783.91;;;24.73;54.76
80308;BME280;69616;43.522;1.348;2023-06-04T08:24:48;99780.03;;;24.51;53.94
80308;BME280;69616;43.522;1.348;2023-06-04T08:27:13;99777.78;;;24.58;54.16
80308;BME280;69616;43.522;1.348;2023-06-04T08:29:39;99784.22;;;24.69;53.92
80308;BME280;69616;43.522;1.348;2023-06-04T08:32:05;99792.13;;;24.85;53.32
80308;BME280;69616;43.522;1.348;2023-06-04T08:34:33;99791.88;;;25.01;52.71
80308;BME280;69616;43.522;1.348;2023-06-04T08:36:58;99792.69;;;25.14;52.99
80308;BME280;69616;43.522;1.348;2023-06-04T08:39:24;99792.88;;;25.24;53.29
80308;BME280;69616;43.522;1.348;2023-06-04T08:41:52;99791.81;;;25.27;52.61
80308;BME280;69616;43.522;1.348;2023-06-04T08:44:19;99791.44;;;25.44;51.82
80308;BME280;69616;43.522;1.348;2023-06-04T08:46:47;99791.22;;;25.72;51.33
80308;BME280;69616;43.522;1.348;2023-06-04T08:49:16;99790.66;;;25.91;51.36
80308;BME280;69616;43.522;1.348;2023-06-04T08:51:44;99793.41;;;26.02;51.46
80308;BME280;69616;43.522;1.348;2023-06-04T08:54:09;99787.78;;;26.05;50.84
80308;BME280;69616;43.522;1.348;2023-06-04T08:56:36;99791.56;;;26.03;50.63
80308;BME280;69616;43.522;1.348;2023-06-04T08:59:04;99797.44;;;26.21;51.05
80308;BME280;69616;43.522;1.348;2023-06-04T09:01:32;99791.56;;;26.39;50.13
80308;BME280;69616;43.522;1.348;2023-06-04T09:04:00;99791.09;;;26.56;49.65
80308;BME280;69616;43.522;1.348;2023-06-04T09:06:27;99791.47;;;26.63;48.64
80308;BME280;69616;43.522;1.348;2023-06-04T09:08:56;99788.63;;;26.64;49.15
80308;BME280;69616;43.522;1.348;2023-06-04T09:11:23;99788.03;;;26.84;48.96
80308;BME280;69616;43.522;1.348;2023-06-04T09:13:52;99783.53;;;26.96;48.40
80308;BME280;69616;43.522;1.348;2023-06-04T09:16:18;99786.84;;;26.88;48.04
80308;BME280;69616;43.522;1.348;2023-06-04T09:18:44;99784.25;;;26.98;48.47
80308;BME280;69616;43.522;1.348;2023-06-04T09:21:10;99785.84;;;27.12;47.65
80308;BME280;69616;43.522;1.348;2023-06-04T09:23:45;99782.50;;;27.19;47.34
80308;BME280;69616;43.522;1.348;2023-06-04T09:26:11;99786.41;;;27.38;47.22
80308;BME280;69616;43.522;1.348;2023-06-04T09:28:46;99785.69;;;27.25;47.47
80308;BME280;69616;43.522;1.348;2023-06-04T09:31:15;99778.19;;;27.17;47.30
80308;BME280;69616;43.522;1.348;2023-06-04T09:33:44;99783.38;;;26.97;46.88
80308;BME280;69616;43.522;1.348;2023-06-04T09:36:10;99779.94;;;27.06;46.97
80308;BME280;69616;43.522;1.348;2023-06-04T09:38:37;99779.91;;;27.29;47.26
80308;BME280;69616;43.522;1.348;2023-06-04T09:41:02;99790.31;;;27.45;46.70
80308;BME280;69616;43.522;1.348;2023-06-04T09:43:30;99779.31;;;27.70;46.52
80308;BME280;69616;43.522;1.348;2023-06-04T09:46:11;99781.03;;;27.71;46.57
80308;BME280;69616;43.522;1.348;2023-06-04T09:48:37;99777.94;;;27.75;46.49
80308;BME280;69616;43.522;1.348;2023-06-04T09:51:12;99777.81;;;27.77;46.19
80308;BME280;69616;43.522;1.348;2023-06-04T09:53:39;99780.41;;;28.00;45.66
80308;BME280;69616;43.522;1.348;2023-06-04T09:56:06;99770.81;;;27.96;45.62
80308;BME280;69616;43.522;1.348;2023-06-04T09:58:32;99774.75;;;28.03;44.69
80308;BME280;69616;43.522;1.348;2023-06-04T10:01:00;99776.84;;;27.99;45.85
80308;BME280;69616;43.522;1.348;2023-06-04T10:03:36;99776.84;;;27.99;45.40
80308;BME280;69616;43.522;1.348;2023-06-04T10:06:06;99771.88;;;28.04;44.54
80308;BME280;69616;43.522;1.348;2023-06-04T10:08:33;99767.78;;;28.21;44.13
80308;BME280;69616;43.522;1.348;2023-06-04T10:11:03;99773.72;;;28.36;43.68
80308;BME280;69616;43.522;1.348;2023-06-04T10:13:37;99774.94;;;28.32;42.90
80308;BME280;69616;43.522;1.348;2023-06-04T10:16:06;99766.91;;;28.21;43.16
80308;BME280;69616;43.522;1.348;2023-06-04T10:18:33;99768.44;;;28.02;43.16
80308;BME280;69616;43.522;1.348;2023-06-04T10:20:58;99777.03;;;28.07;43.74
80308;BME280;69616;43.522;1.348;2023-06-04T10:23:24;99766.63;;;28.24;43.29
80308;BME280;69616;43.522;1.348;2023-06-04T10:25:50;99771.38;;;28.11;43.07
80308;BME280;69616;43.522;1.348;2023-06-04T10:28:20;99767.00;;;27.98;42.99
80308;BME280;69616;43.522;1.348;2023-06-04T10:30:49;99768.91;;;28.07;43.13
80308;BME280;69616;43.522;1.348;2023-06-04T10:33:20;99763.38;;;28.09;43.50
80308;BME280;69616;43.522;1.348;2023-06-04T10:35:48;99764.75;;;28.03;43.31
80308;BME280;69616;43.522;1.348;2023-06-04T10:38:13;99763.22;;;28.22;43.78
80308;BME280;69616;43.522;1.348;2023-06-04T10:40:41;99766.94;;;28.52;43.26
80308;BME280;69616;43.522;1.348;2023-06-04T10:43:11;99752.16;;;28.87;42.96
80308;BME280;69616;43.522;1.348;2023-06-04T10:45:37;99754.66;;;29.20;41.95
80308;BME280;69616;43.522;1.348;2023-06-04T10:48:05;99756.28;;;29.42;41.71
80308;BME280;69616;43.522;1.348;2023-06-04T10:50:32;99748.00;;;29.54;40.82
80308;BME280;69616;43.522;1.348;2023-06-04T10:52:59;99752.72;;;29.61;40.70
80308;BME280;69616;43.522;1.348;2023-06-04T10:55:28;99747.16;;;29.53;40.22
80308;BME280;69616;43.522;1.348;2023-06-04T10:57:54;99751.00;;;29.50;40.45
80308;BME280;69616;43.522;1.348;2023-06-04T11:00:21;99753.44;;;29.63;40.46
80308;BME280;69616;43.522;1.348;2023-06-04T11:02:56;99748.28;;;29.50;40.41
80308;BME280;69616;43.522;1.348;2023-06-04T11:05:22;99754.19;;;29.15;40.86
80308;BME280;69616;43.522;1.348;2023-06-04T11:07:49;99748.16;;;28.91;41.32
80308;BME280;69616;43.522;1.348;2023-06-04T11:10:16;99748.78;;;28.74;41.26
80308;BME280;69616;43.522;1.348;2023-06-04T11:12:46;99750.03;;;28.70;41.45
80308;BME280;69616;43.522;1.348;2023-06-04T11:15:12;99740.13;;;28.80;41.18
80308;BME280;69616;43.522;1.348;2023-06-04T11:17:38;99735.94;;;29.07;40.13
80308;BME280;69616;43.522;1.348;2023-06-04T11:20:17;99734.25;;;29.26;39.80
80308;BME280;69616;43.522;1.348;2023-06-04T11:22:54;99741.44;;;29.46;39.35
80308;BME280;69616;43.522;1.348;2023-06-04T11:25:21;99732.44;;;29.75;38.81
80308;BME280;69616;43.522;1.348;2023-06-04T11:27:48;99728.59;;;29.58;39.08
80308;BME280;69616;43.522;1.348;2023-06-04T11:30:14;99727.28;;;29.33;38.51
80308;BME280;69616;43.522;1.348;2023-06-04T11:32:40;99729.38;;;29.19;38.94
80308;BME280;69616;43.522;1.348;2023-06-04T11:35:06;99735.41;;;29.23;38.28
80308;BME280;69616;43.522;1.348;2023-06-04T11:37:31;99717.97;;;29.35;38.01
80308;BME280;69616;43.522;1.348;2023-06-04T11:39:58;99723.75;;;29.52;38.09
80308;BME280;69616;43.522;1.348;2023-06-04T11:42:23;99718.03;;;29.65;37.97
80308;BME280;69616;43.522;1.348;2023-06-04T11:44:48;99717.44;;;29.71;37.24
80308;BME280;69616;43.522;1.348;2023-06-04T11:47:15;99720.31;;;29.79;37.42
80308;BME280;69616;43.522;1.348;2023-06-04T11:49:40;99708.84;;;29.96;37.39
80308;BME280;69616;43.522;1.348;2023-06-04T11:52:08;99708.38;;;30.20;37.34
80308;BME280;69616;43.522;1.348;2023-06-04T11:54:33;99713.47;;;30.33;36.96
80308;BME280;69616;43.522;1.348;2023-06-04T11:57:03;99717.38;;;30.30;37.09
80308;BME280;69616;43.522;1.348;2023-06-04T11:59:30;99710.44;;;30.46;36.57
80308;BME280;69616;43.522;1.348;2023-06-04T12:01:56;99708.41;;;30.48;36.46
80308;BME280;69616;43.522;1.348;2023-06-04T12:04:22;99714.97;;;30.55;36.10
80308;BME280;69616;43.522;1.348;2023-06-04T12:06:58;99704.09;;;30.65;35.86
80308;BME280;69616;43.522;1.348;2023-06-04T12:09:26;99710.19;;;30.39;35.89
80308;BME280;69616;43.522;1.348;2023-06-04T12:12:03;99706.81;;;30.27;35.43
80308;BME280;69616;43.522;1.348;2023-06-04T12:14:29;99707.78;;;30.26;35.92
80308;BME280;69616;43.522;1.348;2023-06-04T12:19:21;99701.69;;;30.52;35.34
80308;BME280;69616;43.522;1.348;2023-06-04T12:22:07;99694.38;;;30.62;35.74
80308;BME280;69616;43.522;1.348;2023-06-04T12:24:34;99692.25;;;30.84;35.19
80308;BME280;69616;43.522;1.348;2023-06-04T12:29:28;99674.50;;;31.08;34.55
80308;BME280;69616;43.522;1.348;2023-06-04T12:32:05;99672.44;;;31.20;35.53
80308;BME280;69616;43.522;1.348;2023-06-04T12:34:33;99669.00;;;31.36;34.35
80308;BME280;69616;43.522;1.348;2023-06-04T12:36:59;99652.06;;;31.42;34.02
80308;BME280;69616;43.522;1.348;2023-06-04T12:39:24;99653.06;;;31.41;32.85
80308;BME280;69616;43.522;1.348;2023-06-04T12:41:49;99652.13;;;31.32;32.83
80308;BME280;69616;43.522;1.348;2023-06-04T12:44:15;99650.91;;;31.27;32.14
80308;BME280;69616;43.522;1.348;2023-06-04T12:46:40;99650.50;;;31.21;32.34
80308;BME280;69616;43.522;1.348;2023-06-04T12:49:06;99639.34;;;31.25;32.90
80308;BME280;69616;43.522;1.348;2023-06-04T12:51:31;99639.63;;;31.21;32.13
80308;BME280;69616;43.522;1.348;2023-06-04T12:53:57;99631.06;;;31.34;32.36
80308;BME280;69616;43.522;1.348;2023-06-04T12:56:23;99631.06;;;31.53;32.34
80308;BME280;69616;43.522;1.348;2023-06-04T12:58:50;99635.41;;;31.63;32.67
80308;BME280;69616;43.522;1.348;2023-06-04T13:01:16;99633.75;;;31.71;32.47
80308;BME280;69616;43.522;1.348;2023-06-04T13:03:41;99630.31;;;31.69;32.96
80308;BME280;69616;43.522;1.348;2023-06-04T13:06:06;99625.72;;;31.69;32.94
80308;BME280;69616;43.522;1.348;2023-06-04T13:08:33;99634.00;;;31.77;32.80